createdAt,value
2023-05-10T00:00:09.686Z,2.55
2023-05-10T00:00:21.308Z,2.45
2023-05-10T00:00:32.720Z,2.30
2023-05-10T00:00:44.189Z,2.30
2023-05-10T00:00:55.600Z,2.40
2023-05-10T00:01:07.053Z,2.33
2023-05-10T00:01:18.386Z,2.20
2023-05-10T00:01:29.779Z,2.55
2023-05-10T00:01:41.183Z,2.60
2023-05-10T00:01:52.721Z,2.50
2023-05-10T00:02:04.192Z,2.25
2023-05-10T00:02:15.706Z,2.08
2023-05-10T00:02:27.334Z,2.13
2023-05-10T00:02:39.185Z,2.10
2023-05-10T00:02:51.007Z,2.30
2023-05-10T00:03:02.545Z,2.50
2023-05-10T00:03:14.069Z,2.47
2023-05-10T00:03:28.643Z,2.40
2023-05-10T00:03:40.222Z,2.38
2023-05-10T00:03:51.833Z,2.40
2023-05-10T00:04:03.330Z,2.20
2023-05-10T00:04:15.063Z,2.08
2023-05-10T00:04:26.526Z,2.28
2023-05-10T00:04:37.894Z,2.33
2023-05-10T00:04:49.395Z,2.25
2023-05-10T00:05:00.828Z,2.38
2023-05-10T00:05:12.183Z,2.60
2023-05-10T00:05:24.116Z,2.60
2023-05-10T00:05:35.551Z,2.38
2023-05-10T00:05:46.963Z,2.10
2023-05-10T00:05:58.384Z,2.05
2023-05-10T00:06:12.104Z,2.03
2023-05-10T00:06:23.481Z,1.92
2023-05-10T00:06:35.503Z,2.38
2023-05-10T00:06:49.320Z,2.92
2023-05-10T00:07:00.768Z,2.90
2023-05-10T00:07:12.186Z,2.42
2023-05-10T00:07:23.741Z,2.30
2023-05-10T00:07:35.167Z,2.15
2023-05-10T00:07:46.542Z,2.00
2023-05-10T00:07:58.053Z,2.17
2023-05-10T00:08:09.524Z,2.17
2023-05-10T00:08:20.943Z,2.30
2023-05-10T00:08:32.364Z,2.13
2023-05-10T00:08:44.636Z,2.30
2023-05-10T00:08:56.080Z,2.15
2023-05-10T00:09:07.794Z,2.20
2023-05-10T00:09:19.179Z,2.20
2023-05-10T00:09:30.493Z,2.15
2023-05-10T00:09:41.837Z,2.20
2023-05-10T00:09:53.278Z,2.22
2023-05-10T00:10:05.075Z,2.13
2023-05-10T00:10:16.586Z,2.10
2023-05-10T00:10:28.189Z,2.10
2023-05-10T00:10:39.607Z,2.30
2023-05-10T00:10:51.089Z,2.50
2023-05-10T00:11:02.524Z,2.53
2023-05-10T00:11:13.907Z,2.45
2023-05-10T00:11:25.285Z,2.40
2023-05-10T00:11:36.665Z,2.35
2023-05-10T00:11:48.117Z,2.20
2023-05-10T00:11:59.528Z,2.30
2023-05-10T00:12:11.007Z,2.40
2023-05-10T00:12:22.632Z,2.25
2023-05-10T00:12:34.091Z,2.22
2023-05-10T00:12:45.604Z,1.95
2023-05-10T00:12:57.142Z,2.42
2023-05-10T00:13:08.672Z,2.40
2023-05-10T00:13:20.167Z,2.35
2023-05-10T00:13:32.300Z,2.40
2023-05-10T00:13:43.785Z,2.50
2023-05-10T00:13:55.227Z,2.45
2023-05-10T00:14:06.600Z,2.30
2023-05-10T00:14:18.186Z,2.10
2023-05-10T00:14:31.082Z,2.30
2023-05-10T00:14:42.664Z,2.47
2023-05-10T00:14:54.097Z,2.40
2023-05-10T00:15:07.354Z,2.30
2023-05-10T00:15:18.845Z,2.15
2023-05-10T00:15:30.256Z,2.05
2023-05-10T00:15:41.703Z,2.28
2023-05-10T00:15:53.080Z,2.42
2023-05-10T00:16:04.772Z,2.42
2023-05-10T00:16:16.275Z,2.53
2023-05-10T00:16:27.861Z,2.45
2023-05-10T00:16:39.367Z,2.35
2023-05-10T00:16:50.797Z,2.20
2023-05-10T00:17:02.400Z,2.50
2023-05-10T00:17:13.996Z,2.55
2023-05-10T00:17:25.518Z,2.50
2023-05-10T00:17:36.957Z,2.40
2023-05-10T00:17:48.444Z,2.30
2023-05-10T00:17:59.954Z,2.30
2023-05-10T00:18:11.474Z,2.10
2023-05-10T00:18:22.895Z,2.53
2023-05-10T00:18:34.309Z,2.50
2023-05-10T00:18:45.745Z,2.47
2023-05-10T00:18:57.223Z,2.20
2023-05-10T00:19:08.889Z,2.40
2023-05-10T00:19:20.608Z,2.70
2023-05-10T00:19:32.067Z,2.65
2023-05-10T00:19:43.436Z,2.53
2023-05-10T00:19:55.005Z,2.33
2023-05-10T00:20:07.122Z,2.53
2023-05-10T00:20:18.837Z,2.63
2023-05-10T00:20:30.513Z,2.50
2023-05-10T00:20:41.934Z,2.33
2023-05-10T00:20:53.384Z,2.30
2023-05-10T00:21:05.232Z,2.28
2023-05-10T00:21:17.653Z,2.15
2023-05-10T00:21:29.087Z,2.08
2023-05-10T00:21:40.496Z,2.17
2023-05-10T00:21:51.887Z,2.40
2023-05-10T00:22:03.308Z,2.63
2023-05-10T00:22:14.830Z,2.90
2023-05-10T00:22:26.522Z,2.80
2023-05-10T00:22:37.969Z,2.50
2023-05-10T00:22:49.403Z,2.38
2023-05-10T00:23:00.891Z,2.42
2023-05-10T00:23:12.824Z,2.35
2023-05-10T00:23:24.209Z,2.35
2023-05-10T00:23:35.594Z,2.30
2023-05-10T00:23:47.113Z,2.20
2023-05-10T00:23:58.496Z,2.20
2023-05-10T00:24:10.150Z,2.45
2023-05-10T00:24:21.626Z,2.50
2023-05-10T00:24:33.067Z,2.50
2023-05-10T00:24:44.510Z,2.30
2023-05-10T00:24:55.979Z,2.30
2023-05-10T00:25:08.300Z,2.40
2023-05-10T00:25:19.751Z,2.53
2023-05-10T00:25:31.325Z,2.58
2023-05-10T00:25:42.832Z,2.40
2023-05-10T00:25:54.270Z,2.40
2023-05-10T00:26:05.724Z,2.50
2023-05-10T00:26:17.194Z,2.55
2023-05-10T00:26:28.617Z,2.72
2023-05-10T00:26:40.011Z,2.70
2023-05-10T00:26:51.417Z,2.63
2023-05-10T00:27:02.862Z,2.50
2023-05-10T00:27:14.261Z,2.47
2023-05-10T00:27:25.743Z,2.58
2023-05-10T00:27:37.219Z,2.65
2023-05-10T00:27:48.695Z,2.88
2023-05-10T00:28:00.191Z,2.60
2023-05-10T00:28:11.586Z,2.50
2023-05-10T00:28:23.162Z,2.53
2023-05-10T00:28:34.589Z,2.70
2023-05-10T00:28:45.975Z,2.60
2023-05-10T00:28:58.616Z,2.55
2023-05-10T00:29:10.052Z,2.30
2023-05-10T00:29:21.515Z,2.35
2023-05-10T00:29:32.965Z,2.40
2023-05-10T00:29:44.326Z,2.55
2023-05-10T00:29:55.705Z,2.33
2023-05-10T00:30:07.831Z,2.30
2023-05-10T00:30:19.331Z,2.30
2023-05-10T00:30:30.898Z,2.55
2023-05-10T00:30:42.364Z,2.58
2023-05-10T00:30:53.761Z,2.90
2023-05-10T00:31:05.192Z,2.92
2023-05-10T00:31:16.607Z,3.00
2023-05-10T00:31:28.058Z,3.00
2023-05-10T00:31:39.425Z,2.97
2023-05-10T00:31:50.883Z,2.75
2023-05-10T00:32:02.371Z,2.83
2023-05-10T00:32:13.945Z,2.90
2023-05-10T00:32:25.429Z,2.78
2023-05-10T00:32:37.017Z,2.53
2023-05-10T00:32:48.550Z,2.53
2023-05-10T00:33:00.027Z,2.53
2023-05-10T00:33:11.518Z,2.72
2023-05-10T00:33:23.315Z,2.58
2023-05-10T00:33:34.726Z,2.55
2023-05-10T00:33:46.160Z,2.47
2023-05-10T00:33:57.498Z,2.67
2023-05-10T00:34:08.922Z,2.50
2023-05-10T00:34:20.427Z,2.40
2023-05-10T00:34:31.781Z,2.30
2023-05-10T00:34:43.191Z,2.50
2023-05-10T00:34:54.598Z,2.53
2023-05-10T00:35:06.639Z,2.38
2023-05-10T00:35:18.125Z,2.33
2023-05-10T00:35:29.700Z,2.33
2023-05-10T00:35:41.195Z,2.30
2023-05-10T00:35:52.640Z,2.30
2023-05-10T00:36:04.377Z,2.40
2023-05-10T00:36:15.835Z,2.45
2023-05-10T00:36:27.302Z,2.50
2023-05-10T00:36:38.693Z,2.53
2023-05-10T00:36:50.023Z,2.45
2023-05-10T00:37:01.402Z,2.42
2023-05-10T00:37:12.828Z,2.25
2023-05-10T00:37:24.336Z,2.30
2023-05-10T00:37:35.756Z,2.28
2023-05-10T00:37:47.216Z,2.35
2023-05-10T00:37:58.631Z,2.55
2023-05-10T00:38:10.034Z,2.45
2023-05-10T00:38:21.477Z,2.47
2023-05-10T00:38:32.883Z,2.55
2023-05-10T00:38:44.262Z,2.70
2023-05-10T00:38:55.625Z,2.65
2023-05-10T00:39:07.048Z,2.65
2023-05-10T00:39:18.517Z,2.60
2023-05-10T00:39:29.932Z,2.50
2023-05-10T00:39:42.674Z,2.38
2023-05-10T00:39:54.120Z,2.53
2023-05-10T00:40:06.914Z,2.70
2023-05-10T00:40:18.699Z,2.85
2023-05-10T00:40:30.473Z,2.85
2023-05-10T00:40:42.010Z,2.75
2023-05-10T00:40:54.288Z,2.80
2023-05-10T00:41:05.674Z,2.92
2023-05-10T00:41:17.145Z,2.70
2023-05-10T00:41:28.475Z,2.58
2023-05-10T00:41:39.892Z,2.55
2023-05-10T00:41:51.307Z,2.53
2023-05-10T00:42:02.739Z,2.47
2023-05-10T00:42:14.149Z,2.20
2023-05-10T00:42:25.577Z,2.40
2023-05-10T00:42:37.099Z,2.38
2023-05-10T00:42:48.496Z,2.63
2023-05-10T00:42:59.836Z,2.50
2023-05-10T00:43:11.310Z,2.53
2023-05-10T00:43:22.652Z,2.50
2023-05-10T00:43:34.036Z,2.47
2023-05-10T00:43:45.419Z,2.28
2023-05-10T00:43:56.795Z,2.25
2023-05-10T00:44:08.270Z,2.28
2023-05-10T00:44:19.765Z,2.50
2023-05-10T00:44:31.207Z,2.40
2023-05-10T00:44:44.233Z,2.42
2023-05-10T00:44:55.650Z,2.58
2023-05-10T00:45:07.602Z,2.58
2023-05-10T00:45:19.060Z,2.30
2023-05-10T00:45:33.403Z,2.20
2023-05-10T00:45:45.359Z,2.47
2023-05-10T00:45:56.912Z,2.67
2023-05-10T00:46:08.773Z,2.75
2023-05-10T00:46:20.510Z,2.70
2023-05-10T00:46:32.376Z,2.40
2023-05-10T00:46:43.799Z,2.55
2023-05-10T00:46:55.246Z,2.70
2023-05-10T00:47:06.945Z,2.97
2023-05-10T00:47:18.669Z,2.90
2023-05-10T00:47:30.400Z,2.88
2023-05-10T00:47:42.035Z,2.47
2023-05-10T00:47:53.700Z,2.15
2023-05-10T00:48:05.850Z,2.00
2023-05-10T00:48:17.521Z,2.40
2023-05-10T00:48:30.764Z,2.60
2023-05-10T00:48:43.231Z,2.50
2023-05-10T00:48:54.982Z,2.40
2023-05-10T00:49:07.328Z,2.30
2023-05-10T00:49:18.882Z,2.33
2023-05-10T00:49:30.668Z,2.35
2023-05-10T00:49:42.500Z,2.60
2023-05-10T00:49:54.113Z,2.78
2023-05-10T00:50:06.560Z,3.10
2023-05-10T00:50:20.175Z,3.03
2023-05-10T00:50:33.652Z,2.65
2023-05-10T00:50:45.431Z,2.30
2023-05-10T00:50:56.905Z,2.10
2023-05-10T00:51:08.463Z,2.38
2023-05-10T00:51:20.127Z,2.58
2023-05-10T00:51:31.553Z,2.78
2023-05-10T00:51:43.139Z,2.67
2023-05-10T00:51:54.971Z,2.70
2023-05-10T00:52:06.467Z,2.50
2023-05-10T00:52:17.925Z,2.42
2023-05-10T00:52:30.312Z,2.42
2023-05-10T00:52:43.084Z,2.60
2023-05-10T00:52:54.502Z,2.78
2023-05-10T00:53:05.975Z,2.45
2023-05-10T00:53:17.718Z,2.35
2023-05-10T00:53:31.737Z,2.45
2023-05-10T00:53:44.940Z,2.53
2023-05-10T00:53:56.515Z,2.40
2023-05-10T00:54:08.397Z,2.42
2023-05-10T00:54:20.195Z,2.35
2023-05-10T00:54:31.721Z,2.20
2023-05-10T00:54:43.300Z,2.30
2023-05-10T00:54:55.537Z,2.30
2023-05-10T00:55:07.826Z,2.35
2023-05-10T00:55:19.408Z,2.40
2023-05-10T00:55:31.349Z,2.50
2023-05-10T00:55:43.055Z,2.30
2023-05-10T00:55:54.532Z,2.30
2023-05-10T00:56:06.102Z,2.38
2023-05-10T00:56:17.712Z,2.63
2023-05-10T00:56:29.403Z,2.80
2023-05-10T00:56:41.776Z,2.60
2023-05-10T00:56:53.200Z,2.38
2023-05-10T00:57:05.003Z,2.58
2023-05-10T00:57:16.392Z,2.40
2023-05-10T00:57:28.044Z,2.40
2023-05-10T00:57:39.715Z,2.38
2023-05-10T00:57:51.204Z,2.40
2023-05-10T00:58:02.850Z,2.22
2023-05-10T00:58:14.287Z,2.47
2023-05-10T00:58:26.067Z,2.47
2023-05-10T00:58:37.646Z,2.58
2023-05-10T00:58:49.490Z,2.33
2023-05-10T00:59:01.062Z,2.47
2023-05-10T00:59:12.620Z,2.53
2023-05-10T00:59:24.770Z,2.35
2023-05-10T00:59:37.646Z,2.40
2023-05-10T00:59:49.799Z,2.47
2023-05-10T01:00:02.990Z,2.60
2023-05-10T01:00:15.100Z,2.35
2023-05-10T01:00:27.037Z,2.40
2023-05-10T01:00:39.051Z,2.50
2023-05-10T01:00:51.455Z,2.70
2023-05-10T01:01:03.373Z,2.90
2023-05-10T01:01:14.925Z,2.90
2023-05-10T01:01:26.575Z,2.78
2023-05-10T01:01:38.646Z,2.35
2023-05-10T01:01:50.193Z,2.42
2023-05-10T01:02:02.871Z,2.47
2023-05-10T01:02:14.433Z,2.63
2023-05-10T01:02:25.951Z,2.60
2023-05-10T01:02:37.950Z,2.67
2023-05-10T01:02:49.607Z,2.67
2023-05-10T01:03:01.126Z,2.53
2023-05-10T01:03:13.026Z,2.50
2023-05-10T01:03:24.673Z,2.35
2023-05-10T01:03:37.061Z,2.65
2023-05-10T01:03:49.084Z,2.80
2023-05-10T01:04:00.684Z,2.70
2023-05-10T01:04:13.411Z,2.60
2023-05-10T01:04:24.921Z,2.75
2023-05-10T01:04:36.648Z,2.78
2023-05-10T01:04:50.583Z,2.80
2023-05-10T01:05:03.824Z,2.75
2023-05-10T01:05:15.408Z,2.50
2023-05-10T01:05:26.977Z,2.38
2023-05-10T01:05:38.784Z,2.60
2023-05-10T01:05:51.156Z,2.50
2023-05-10T01:06:02.927Z,2.35
2023-05-10T01:06:14.424Z,2.58
2023-05-10T01:06:25.906Z,2.70
2023-05-10T01:06:37.689Z,2.58
2023-05-10T01:06:49.098Z,2.50
2023-05-10T01:07:00.503Z,2.60
2023-05-10T01:07:11.903Z,2.78
2023-05-10T01:07:23.304Z,2.60
2023-05-10T01:07:34.675Z,2.40
2023-05-10T01:07:46.959Z,2.40
2023-05-10T01:07:58.352Z,2.58
2023-05-10T01:08:09.901Z,2.67
2023-05-10T01:08:21.719Z,2.55
2023-05-10T01:08:33.440Z,2.75
2023-05-10T01:08:44.886Z,2.95
2023-05-10T01:08:57.172Z,3.03
2023-05-10T01:09:08.776Z,3.00
2023-05-10T01:09:21.457Z,2.67
2023-05-10T01:09:34.080Z,2.70
2023-05-10T01:09:45.853Z,2.83
2023-05-10T01:09:57.523Z,2.95
2023-05-10T01:10:09.772Z,3.00
2023-05-10T01:10:21.339Z,2.63
2023-05-10T01:10:33.201Z,2.53
2023-05-10T01:10:45.094Z,2.75
2023-05-10T01:10:56.840Z,3.13
2023-05-10T01:11:08.372Z,3.03
2023-05-10T01:11:19.962Z,3.00
2023-05-10T01:11:31.509Z,2.80
2023-05-10T01:11:42.996Z,2.75
2023-05-10T01:11:55.377Z,2.88
2023-05-10T01:12:07.310Z,3.20
2023-05-10T01:12:18.976Z,3.03
2023-05-10T01:12:30.826Z,2.90
2023-05-10T01:12:45.900Z,2.83
2023-05-10T01:12:57.536Z,2.63
2023-05-10T01:13:09.106Z,2.60
2023-05-10T01:13:39.795Z,2.88
2023-05-10T01:13:57.023Z,2.63
2023-05-10T01:14:08.945Z,3.22
2023-05-10T01:14:21.009Z,3.30
2023-05-10T01:14:32.460Z,3.08
2023-05-10T01:14:44.421Z,3.08
2023-05-10T01:14:55.972Z,3.35
2023-05-10T01:15:11.879Z,3.08
2023-05-10T01:15:23.774Z,2.83
2023-05-10T01:15:35.783Z,2.90
2023-05-10T01:15:47.389Z,3.00
2023-05-10T01:15:59.482Z,2.95
2023-05-10T01:16:11.042Z,2.80
2023-05-10T01:16:22.859Z,2.92
2023-05-10T01:16:38.438Z,2.92
2023-05-10T01:16:50.903Z,2.97
2023-05-10T01:17:02.719Z,2.85
2023-05-10T01:17:14.551Z,2.67
2023-05-10T01:17:26.621Z,2.60
2023-05-10T01:17:40.918Z,2.80
2023-05-10T01:17:54.634Z,2.90
2023-05-10T01:18:06.257Z,3.17
2023-05-10T01:18:21.829Z,3.10
2023-05-10T01:18:39.520Z,2.78
2023-05-10T01:18:52.485Z,2.70
2023-05-10T01:19:17.891Z,2.90
2023-05-10T01:19:32.045Z,3.03
2023-05-10T01:19:43.625Z,2.80
2023-05-10T01:19:55.061Z,2.53
2023-05-10T01:20:08.257Z,2.80
2023-05-10T01:20:20.066Z,3.00
2023-05-10T01:20:41.837Z,2.83
2023-05-10T01:21:18.195Z,2.72
2023-05-10T01:21:49.531Z,2.95
2023-05-10T01:22:22.230Z,2.90
2023-05-10T01:23:15.561Z,2.78
2023-05-10T01:23:42.151Z,2.70
2023-05-10T01:24:31.036Z,2.85
2023-05-10T01:25:27.277Z,2.60
2023-05-10T01:25:57.101Z,2.97
2023-05-10T01:26:41.589Z,3.42
2023-05-10T01:27:31.523Z,3.40
2023-05-10T01:27:55.402Z,2.90
2023-05-10T01:28:21.988Z,2.90
2023-05-10T01:29:01.257Z,3.00
2023-05-10T01:29:44.154Z,2.40
2023-05-10T01:30:16.919Z,2.60
2023-05-10T01:31:02.051Z,2.78
2023-05-10T01:31:23.197Z,2.67
2023-05-10T01:32:12.284Z,2.70
2023-05-10T01:33:00.595Z,2.65
2023-05-10T01:33:26.110Z,2.38
2023-05-10T01:34:06.080Z,2.50
2023-05-10T01:34:24.833Z,2.85
2023-05-10T01:34:53.243Z,2.92
2023-05-10T01:35:14.810Z,2.45
2023-05-10T01:35:56.549Z,2.50
2023-05-10T01:36:31.993Z,2.60
2023-05-10T01:36:55.275Z,2.60
2023-05-10T01:37:21.873Z,2.45
2023-05-10T01:37:43.135Z,2.33
2023-05-10T01:38:17.735Z,2.30
2023-05-10T01:38:38.307Z,2.20
2023-05-10T01:39:02.357Z,2.30
2023-05-10T01:39:33.543Z,2.42
2023-05-10T01:39:55.984Z,2.22
2023-05-10T01:40:18.535Z,2.67
2023-05-10T01:40:40.179Z,2.70
2023-05-10T01:41:04.706Z,2.50
2023-05-10T01:41:22.544Z,2.42
2023-05-10T01:41:48.522Z,2.30
2023-05-10T01:42:11.964Z,2.65
2023-05-10T01:42:33.325Z,2.65
2023-05-10T01:42:52.174Z,2.65
2023-05-10T01:43:08.903Z,2.47
2023-05-10T01:43:29.130Z,2.45
2023-05-10T01:44:05.651Z,2.25
2023-05-10T01:44:40.942Z,2.88
2023-05-10T01:45:08.465Z,2.35
2023-05-10T01:45:37.920Z,2.20
2023-05-10T01:45:57.582Z,2.08
2023-05-10T01:46:11.827Z,2.15
2023-05-10T01:46:36.749Z,2.30
2023-05-10T01:46:59.282Z,2.50
2023-05-10T01:47:17.898Z,2.38
2023-05-10T01:47:42.945Z,2.47
2023-05-10T01:48:04.906Z,2.75
2023-05-10T01:48:17.927Z,2.75
2023-05-10T01:48:30.954Z,2.63
2023-05-10T01:48:56.559Z,2.45
2023-05-10T01:49:12.530Z,2.60
2023-05-10T01:49:32.905Z,2.58
2023-05-10T01:50:10.815Z,2.60
2023-05-10T01:50:27.384Z,2.90
2023-05-10T01:50:42.575Z,2.90
2023-05-10T01:50:55.555Z,2.72
2023-05-10T01:51:07.881Z,2.67
2023-05-10T01:51:24.706Z,2.53
2023-05-10T01:51:58.054Z,2.10
2023-05-10T01:52:12.975Z,2.60
2023-05-10T01:52:31.055Z,2.70
2023-05-10T01:52:44.637Z,2.42
2023-05-10T01:52:59.502Z,2.33
2023-05-10T01:53:13.589Z,2.33
2023-05-10T01:53:26.812Z,2.50
2023-05-10T01:53:39.858Z,2.42
2023-05-10T01:53:55.059Z,2.33
2023-05-10T01:54:07.434Z,2.50
2023-05-10T01:54:21.115Z,2.60
2023-05-10T01:54:34.747Z,2.78
2023-05-10T01:54:55.027Z,2.53
2023-05-10T01:55:09.064Z,2.33
2023-05-10T01:55:23.826Z,2.53
2023-05-10T01:55:45.932Z,2.42
2023-05-10T01:55:59.704Z,2.33
2023-05-10T01:56:13.603Z,2.30
2023-05-10T01:56:27.753Z,2.30
2023-05-10T01:56:41.077Z,2.38
2023-05-10T01:57:08.650Z,2.50
2023-05-10T01:57:23.101Z,2.35
2023-05-10T01:57:36.396Z,2.38
2023-05-10T01:57:51.971Z,2.20
2023-05-10T01:58:11.051Z,2.25
2023-05-10T01:58:28.137Z,2.45
2023-05-10T01:58:44.295Z,2.22
2023-05-10T01:58:57.314Z,2.25
2023-05-10T01:59:14.067Z,2.55
2023-05-10T01:59:30.660Z,2.65
2023-05-10T01:59:46.380Z,2.75
2023-05-10T02:00:00.391Z,2.72
2023-05-10T02:00:12.985Z,2.50
2023-05-10T02:00:25.110Z,2.70
2023-05-10T02:00:40.687Z,2.70
2023-05-10T02:00:53.936Z,2.58
2023-05-10T02:01:09.038Z,2.75
2023-05-10T02:01:22.548Z,2.88
2023-05-10T02:01:35.485Z,2.78
2023-05-10T02:01:48.754Z,2.38
2023-05-10T02:02:01.695Z,2.03
2023-05-10T02:02:14.793Z,2.00
2023-05-10T02:02:28.324Z,2.25
2023-05-10T02:02:46.676Z,2.53
2023-05-10T02:02:58.720Z,2.60
2023-05-10T02:03:12.094Z,2.85
2023-05-10T02:03:26.035Z,3.13
2023-05-10T02:03:39.489Z,3.20
2023-05-10T02:03:54.696Z,2.80
2023-05-10T02:04:09.096Z,2.40
2023-05-10T02:04:24.354Z,2.38
2023-05-10T02:04:39.482Z,2.15
2023-05-10T02:04:52.100Z,1.95
2023-05-10T02:05:06.375Z,2.08
2023-05-10T02:05:18.715Z,2.70
2023-05-10T02:05:32.968Z,3.00
2023-05-10T02:05:46.930Z,2.70
2023-05-10T02:05:58.798Z,2.80
2023-05-10T02:06:13.703Z,2.90
2023-05-10T02:06:26.528Z,2.53
2023-05-10T02:06:39.272Z,2.80
2023-05-10T02:06:52.328Z,2.83
2023-05-10T02:07:04.831Z,2.75
2023-05-10T02:07:17.423Z,2.70
2023-05-10T02:07:29.618Z,2.88
2023-05-10T02:07:42.899Z,2.80
2023-05-10T02:07:55.046Z,2.50
2023-05-10T02:08:10.946Z,2.20
2023-05-10T02:08:24.095Z,2.45
2023-05-10T02:08:37.083Z,2.75
2023-05-10T02:08:51.291Z,2.92
2023-05-10T02:09:04.041Z,2.85
2023-05-10T02:09:17.178Z,3.00
2023-05-10T02:09:30.611Z,2.88
2023-05-10T02:09:45.656Z,2.83
2023-05-10T02:09:58.739Z,2.85
2023-05-10T02:10:12.372Z,2.80
2023-05-10T02:10:23.913Z,2.80
2023-05-10T02:10:36.098Z,2.67
2023-05-10T02:10:50.206Z,2.78
2023-05-10T02:11:04.105Z,2.80
2023-05-10T02:11:17.844Z,2.85
2023-05-10T02:11:30.719Z,2.60
2023-05-10T02:11:44.659Z,2.58
2023-05-10T02:11:57.507Z,2.50
2023-05-10T02:12:10.109Z,2.30
2023-05-10T02:12:23.627Z,2.17
2023-05-10T02:12:46.176Z,2.20
2023-05-10T02:13:03.216Z,2.22
2023-05-10T02:13:16.985Z,2.28
2023-05-10T02:13:30.624Z,2.42
2023-05-10T02:13:43.691Z,2.50
2023-05-10T02:13:57.227Z,2.50
2023-05-10T02:14:12.262Z,2.30
2023-05-10T02:14:29.631Z,2.13
2023-05-10T02:14:43.155Z,2.28
2023-05-10T02:14:55.924Z,2.35
2023-05-10T02:15:09.500Z,2.58
2023-05-10T02:15:23.917Z,2.60
2023-05-10T02:15:37.325Z,2.40
2023-05-10T02:15:51.074Z,2.20
2023-05-10T02:16:02.966Z,2.05
2023-05-10T02:16:16.102Z,2.22
2023-05-10T02:16:28.521Z,2.03
2023-05-10T02:16:41.633Z,1.77
2023-05-10T02:16:54.733Z,1.75
2023-05-10T02:17:08.568Z,2.45
2023-05-10T02:17:20.959Z,2.72
2023-05-10T02:17:37.978Z,2.50
2023-05-10T02:17:50.151Z,2.08
2023-05-10T02:18:03.941Z,2.15
2023-05-10T02:18:17.081Z,2.15
2023-05-10T02:18:28.651Z,2.25
2023-05-10T02:18:41.969Z,2.53
2023-05-10T02:18:54.506Z,2.35
2023-05-10T02:19:07.336Z,2.30
2023-05-10T02:19:20.862Z,2.20
2023-05-10T02:19:33.886Z,2.40
2023-05-10T02:19:47.735Z,2.63
2023-05-10T02:20:01.345Z,2.60
2023-05-10T02:20:13.869Z,2.88
2023-05-10T02:20:27.082Z,2.78
2023-05-10T02:20:39.813Z,3.00
2023-05-10T02:20:53.787Z,3.10
2023-05-10T02:21:09.376Z,3.15
2023-05-10T02:21:22.503Z,2.80
2023-05-10T02:21:35.502Z,2.90
2023-05-10T02:21:47.516Z,3.30
2023-05-10T02:22:01.692Z,3.20
2023-05-10T02:22:14.375Z,2.88
2023-05-10T02:22:29.048Z,2.80
2023-05-10T02:22:42.634Z,2.75
2023-05-10T02:22:56.715Z,2.78
2023-05-10T02:23:10.604Z,2.70
2023-05-10T02:23:23.639Z,2.50
2023-05-10T02:23:35.637Z,2.50
2023-05-10T02:23:47.578Z,2.40
2023-05-10T02:24:02.360Z,2.40
2023-05-10T02:24:16.061Z,2.30
2023-05-10T02:24:29.075Z,2.28
2023-05-10T02:24:41.145Z,2.30
2023-05-10T02:24:54.251Z,2.35
2023-05-10T02:25:07.839Z,2.58
2023-05-10T02:25:22.131Z,2.50
2023-05-10T02:25:33.759Z,2.38
2023-05-10T02:25:48.350Z,2.42
2023-05-10T02:26:01.899Z,2.45
2023-05-10T02:26:14.949Z,2.55
2023-05-10T02:26:27.785Z,2.70
2023-05-10T02:26:42.464Z,2.85
2023-05-10T02:26:56.137Z,2.85
2023-05-10T02:27:09.261Z,3.15
2023-05-10T02:27:21.571Z,3.03
2023-05-10T02:27:34.672Z,2.90
2023-05-10T02:27:48.306Z,2.95
2023-05-10T02:28:02.587Z,3.13
2023-05-10T02:28:16.388Z,3.20
2023-05-10T02:28:28.961Z,2.97
2023-05-10T02:28:44.688Z,2.88
2023-05-10T02:28:58.252Z,3.08
2023-05-10T02:29:10.628Z,3.53
2023-05-10T02:29:24.506Z,3.47
2023-05-10T02:29:37.482Z,2.95
2023-05-10T02:29:50.309Z,3.05
2023-05-10T02:30:02.723Z,2.97
2023-05-10T02:30:15.436Z,2.65
2023-05-10T02:30:27.742Z,2.05
2023-05-10T02:30:40.048Z,1.83
2023-05-10T02:30:53.898Z,2.10
2023-05-10T02:31:06.700Z,2.13
2023-05-10T02:31:19.203Z,2.13
2023-05-10T02:31:34.327Z,2.03
2023-05-10T02:31:46.919Z,2.08
2023-05-10T02:32:00.670Z,2.10
2023-05-10T02:32:13.499Z,2.30
2023-05-10T02:32:26.993Z,2.30
2023-05-10T02:32:39.688Z,2.30
2023-05-10T02:32:52.690Z,2.50
2023-05-10T02:33:06.156Z,2.50
2023-05-10T02:33:18.849Z,2.33
2023-05-10T02:33:32.702Z,2.33
2023-05-10T02:33:45.618Z,2.22
2023-05-10T02:33:58.733Z,2.30
2023-05-10T02:34:12.070Z,2.38
2023-05-10T02:34:26.453Z,2.55
2023-05-10T02:34:38.456Z,2.75
2023-05-10T02:34:50.716Z,3.00
2023-05-10T02:35:04.552Z,3.00
2023-05-10T02:35:17.153Z,2.88
2023-05-10T02:35:29.075Z,2.85
2023-05-10T02:35:41.015Z,3.17
2023-05-10T02:35:53.429Z,3.20
2023-05-10T02:36:05.787Z,3.58
2023-05-10T02:36:17.863Z,3.47
2023-05-10T02:36:30.626Z,3.40
2023-05-10T02:36:43.211Z,3.10
2023-05-10T02:36:56.178Z,2.97
2023-05-10T02:37:07.900Z,2.78
2023-05-10T02:37:22.349Z,2.88
2023-05-10T02:37:35.258Z,3.05
2023-05-10T02:37:48.650Z,2.90
2023-05-10T02:38:00.871Z,3.03
2023-05-10T02:38:12.800Z,3.00
2023-05-10T02:38:26.104Z,2.80
2023-05-10T02:38:37.969Z,2.50
2023-05-10T02:38:51.350Z,2.60
2023-05-10T02:39:03.163Z,2.53
2023-05-10T02:39:16.545Z,2.40
2023-05-10T02:39:29.442Z,2.63
2023-05-10T02:39:41.832Z,2.70
2023-05-10T02:39:56.018Z,2.50
2023-05-10T02:40:09.500Z,2.20
2023-05-10T02:40:23.949Z,2.47
2023-05-10T02:40:37.682Z,2.58
2023-05-10T02:40:49.608Z,2.47
2023-05-10T02:41:02.424Z,2.58
2023-05-10T02:41:14.427Z,2.47
2023-05-10T02:41:26.628Z,2.28
2023-05-10T02:41:39.052Z,2.30
2023-05-10T02:41:52.848Z,2.30
2023-05-10T02:42:05.691Z,2.50
2023-05-10T02:42:19.871Z,2.40
2023-05-10T02:42:35.909Z,2.38
2023-05-10T02:42:51.379Z,2.45
2023-05-10T02:43:03.570Z,2.50
2023-05-10T02:43:17.908Z,2.35
2023-05-10T02:43:32.588Z,2.35
2023-05-10T02:43:45.110Z,2.20
2023-05-10T02:44:00.257Z,2.10
2023-05-10T02:44:14.258Z,2.05
2023-05-10T02:44:28.423Z,2.15
2023-05-10T02:44:42.528Z,2.55
2023-05-10T02:45:02.350Z,2.72
2023-05-10T02:45:18.028Z,2.53
2023-05-10T02:45:32.050Z,2.50
2023-05-10T02:45:44.454Z,2.40
2023-05-10T02:45:55.951Z,2.33
2023-05-10T02:46:07.689Z,2.40
2023-05-10T02:46:19.255Z,2.50
2023-05-10T02:46:31.562Z,2.50
2023-05-10T02:46:43.051Z,2.63
2023-05-10T02:46:54.494Z,2.65
2023-05-10T02:47:05.945Z,2.58
2023-05-10T02:47:18.895Z,2.22
2023-05-10T02:47:30.554Z,1.83
2023-05-10T02:47:42.202Z,1.80
2023-05-10T02:47:53.835Z,1.98
2023-05-10T02:48:05.717Z,2.22
2023-05-10T02:48:17.737Z,2.15
2023-05-10T02:48:29.619Z,2.10
2023-05-10T02:48:41.028Z,2.03
2023-05-10T02:48:52.492Z,2.00
2023-05-10T02:49:04.361Z,1.80
2023-05-10T02:49:16.589Z,1.83
2023-05-10T02:49:28.019Z,2.13
2023-05-10T02:49:39.532Z,2.35
2023-05-10T02:49:51.146Z,2.20
2023-05-10T02:50:03.188Z,2.28
2023-05-10T02:50:14.867Z,2.25
2023-05-10T02:50:29.528Z,2.10
2023-05-10T02:50:45.041Z,2.17
2023-05-10T02:51:08.922Z,2.13
2023-05-10T02:51:25.380Z,2.08
2023-05-10T02:51:41.637Z,2.00
2023-05-10T02:52:00.884Z,2.00
2023-05-10T02:52:17.454Z,2.20
2023-05-10T02:52:37.707Z,2.03
2023-05-10T02:52:52.368Z,2.28
2023-05-10T02:53:19.348Z,2.20
2023-05-10T02:53:36.528Z,2.60
2023-05-10T02:53:51.066Z,2.47
2023-05-10T02:54:10.358Z,2.20
2023-05-10T02:54:27.903Z,2.35
2023-05-10T02:54:44.635Z,2.00
2023-05-10T02:54:59.677Z,2.10
2023-05-10T02:55:15.416Z,2.28
2023-05-10T02:55:32.330Z,2.05
2023-05-10T02:55:46.367Z,2.30
2023-05-10T02:56:01.587Z,2.30
2023-05-10T02:56:18.158Z,2.00
2023-05-10T02:56:40.637Z,2.03
2023-05-10T02:56:58.037Z,2.33
2023-05-10T02:57:15.142Z,2.20
2023-05-10T02:57:31.988Z,2.33
2023-05-10T02:57:51.788Z,2.20
2023-05-10T02:58:04.138Z,1.98
2023-05-10T02:58:15.655Z,2.00
2023-05-10T02:58:27.310Z,2.30
2023-05-10T02:58:38.722Z,2.22
2023-05-10T02:58:50.255Z,2.15
2023-05-10T02:59:01.670Z,2.20
2023-05-10T02:59:13.245Z,2.20
2023-05-10T02:59:24.733Z,2.30
2023-05-10T02:59:36.204Z,2.40
2023-05-10T02:59:47.664Z,2.40
2023-05-10T02:59:59.276Z,2.20
2023-05-10T03:00:11.187Z,2.17
2023-05-10T03:00:22.724Z,2.28
2023-05-10T03:00:34.575Z,2.40
2023-05-10T03:00:46.512Z,2.63
2023-05-10T03:00:57.972Z,2.60
2023-05-10T03:01:09.683Z,2.58
2023-05-10T03:01:21.300Z,2.50
2023-05-10T03:01:33.312Z,2.45
2023-05-10T03:01:44.848Z,2.40
2023-05-10T03:01:56.452Z,2.50
2023-05-10T03:02:08.312Z,2.45
2023-05-10T03:02:21.093Z,2.10
2023-05-10T03:02:32.609Z,2.28
2023-05-10T03:02:44.107Z,2.50
2023-05-10T03:02:55.927Z,2.70
2023-05-10T03:03:07.340Z,2.45
2023-05-10T03:03:18.791Z,2.05
2023-05-10T03:03:30.215Z,1.98
2023-05-10T03:03:41.588Z,2.13
2023-05-10T03:03:53.023Z,2.30
2023-05-10T03:04:04.862Z,2.33
2023-05-10T03:04:16.510Z,2.40
2023-05-10T03:04:27.962Z,2.13
2023-05-10T03:04:39.476Z,2.30
2023-05-10T03:04:50.894Z,2.50
2023-05-10T03:05:02.553Z,2.47
2023-05-10T03:05:14.059Z,2.47
2023-05-10T03:05:25.459Z,2.60
2023-05-10T03:05:36.925Z,2.35
2023-05-10T03:05:48.366Z,2.10